sensor_id;sensor_type;location;lat;lon;timestamp;P1;durP1;ratioP1;P2;durP2;ratioP2
81006;SDS011;70472;47.592;17.640;2023-09-19T00:00:06;9.50;;;9.50;;
81006;SDS011;70472;47.592;17.640;2023-09-19T00:00:39;10.63;;;10.63;;
81006;SDS011;70472;47.592;17.640;2023-09-19T00:01:12;9.67;;;9.67;;
81006;SDS011;70472;47.592;17.640;2023-09-19T00:01:44;9.57;;;9.57;;
81006;SDS011;70472;47.592;17.640;2023-09-19T00:02:17;9.37;;;9.37;;
81006;SDS011;70472;47.592;17.640;2023-09-19T00:02:56;9.50;;;9.50;;
81006;SDS011;70472;47.592;17.640;2023-09-19T00:03:29;9.80;;;9.80;;
81006;SDS011;70472;47.592;17.640;2023-09-19T00:04:02;10.30;;;10.30;;
81006;SDS011;70472;47.592;17.640;2023-09-19T00:04:34;10.47;;;10.47;;
81006;SDS011;70472;47.592;17.640;2023-09-19T00:05:07;9.80;;;9.80;;
81006;SDS011;70472;47.592;17.640;2023-09-19T00:05:39;9.87;;;9.87;;
81006;SDS011;70472;47.592;17.640;2023-09-19T00:06:12;10.17;;;10.17;;
81006;SDS011;70472;47.592;17.640;2023-09-19T00:06:44;10.37;;;10.37;;
81006;SDS011;70472;47.592;17.640;2023-09-19T00:07:16;10.40;;;10.40;;
81006;SDS011;70472;47.592;17.640;2023-09-19T00:07:50;9.83;;;9.83;;
81006;SDS011;70472;47.592;17.640;2023-09-19T00:08:26;10.13;;;10.13;;
81006;SDS011;70472;47.592;17.640;2023-09-19T00:08:58;9.90;;;9.90;;
81006;SDS011;70472;47.592;17.640;2023-09-19T00:09:31;10.13;;;10.13;;
81006;SDS011;70472;47.592;17.640;2023-09-19T00:10:03;9.63;;;9.63;;
81006;SDS011;70472;47.592;17.640;2023-09-19T00:10:36;10.00;;;10.00;;
81006;SDS011;70472;47.592;17.640;2023-09-19T00:11:09;10.37;;;10.37;;
81006;SDS011;70472;47.592;17.640;2023-09-19T00:11:41;9.77;;;9.77;;
81006;SDS011;70472;47.592;17.640;2023-09-19T00:12:14;10.03;;;10.03;;
81006;SDS011;70472;47.592;17.640;2023-09-19T00:12:46;9.50;;;9.50;;
81006;SDS011;70472;47.592;17.640;2023-09-19T00:13:18;8.80;;;8.80;;
81006;SDS011;70472;47.592;17.640;2023-09-19T00:13:51;9.53;;;9.53;;
81006;SDS011;70472;47.592;17.640;2023-09-19T00:14:24;9.57;;;9.57;;
81006;SDS011;70472;47.592;17.640;2023-09-19T00:14:57;9.13;;;9.13;;
81006;SDS011;70472;47.592;17.640;2023-09-19T00:15:29;9.90;;;9.90;;
81006;SDS011;70472;47.592;17.640;2023-09-19T00:16:08;10.23;;;10.23;;
81006;SDS011;70472;47.592;17.640;2023-09-19T00:16:43;9.57;;;9.57;;
81006;SDS011;70472;47.592;17.640;2023-09-19T00:17:16;9.20;;;9.20;;
81006;SDS011;70472;47.592;17.640;2023-09-19T00:17:48;9.03;;;9.03;;
81006;SDS011;70472;47.592;17.640;2023-09-19T00:18:20;9.67;;;9.67;;
81006;SDS011;70472;47.592;17.640;2023-09-19T00:18:53;9.70;;;9.70;;
81006;SDS011;70472;47.592;17.640;2023-09-19T00:19:26;9.67;;;9.67;;
81006;SDS011;70472;47.592;17.640;2023-09-19T00:19:58;9.33;;;9.33;;
81006;SDS011;70472;47.592;17.640;2023-09-19T00:20:31;9.80;;;9.80;;
81006;SDS011;70472;47.592;17.640;2023-09-19T00:21:03;10.47;;;10.47;;
81006;SDS011;70472;47.592;17.640;2023-09-19T00:21:36;9.77;;;9.77;;
81006;SDS011;70472;47.592;17.640;2023-09-19T00:22:08;9.70;;;9.70;;
81006;SDS011;70472;47.592;17.640;2023-09-19T00:22:41;10.20;;;10.20;;
81006;SDS011;70472;47.592;17.640;2023-09-19T00:23:14;10.20;;;10.20;;
81006;SDS011;70472;47.592;17.640;2023-09-19T00:23:46;9.53;;;9.53;;
81006;SDS011;70472;47.592;17.640;2023-09-19T00:24:19;9.07;;;9.07;;
81006;SDS011;70472;47.592;17.640;2023-09-19T00:24:51;9.10;;;9.10;;
81006;SDS011;70472;47.592;17.640;2023-09-19T00:25:23;10.23;;;10.23;;
81006;SDS011;70472;47.592;17.640;2023-09-19T00:25:58;10.10;;;10.10;;
81006;SDS011;70472;47.592;17.640;2023-09-19T00:26:31;9.77;;;9.77;;
81006;SDS011;70472;47.592;17.640;2023-09-19T00:27:04;10.00;;;10.00;;
81006;SDS011;70472;47.592;17.640;2023-09-19T00:27:39;10.27;;;10.27;;
81006;SDS011;70472;47.592;17.640;2023-09-19T00:28:12;10.30;;;10.30;;
81006;SDS011;70472;47.592;17.640;2023-09-19T00:28:44;10.87;;;10.87;;
81006;SDS011;70472;47.592;17.640;2023-09-19T00:29:17;11.03;;;11.03;;
81006;SDS011;70472;47.592;17.640;2023-09-19T00:29:49;10.07;;;10.07;;
81006;SDS011;70472;47.592;17.640;2023-09-19T00:30:22;10.07;;;10.07;;
81006;SDS011;70472;47.592;17.640;2023-09-19T00:30:54;10.40;;;10.40;;
81006;SDS011;70472;47.592;17.640;2023-09-19T00:31:27;10.27;;;10.27;;
81006;SDS011;70472;47.592;17.640;2023-09-19T00:31:59;9.73;;;9.73;;
81006;SDS011;70472;47.592;17.640;2023-09-19T00:32:31;10.63;;;10.63;;
81006;SDS011;70472;47.592;17.640;2023-09-19T00:33:04;10.40;;;10.40;;
81006;SDS011;70472;47.592;17.640;2023-09-19T00:33:36;10.00;;;10.00;;
81006;SDS011;70472;47.592;17.640;2023-09-19T00:34:09;9.77;;;9.77;;
81006;SDS011;70472;47.592;17.640;2023-09-19T00:34:41;9.80;;;9.80;;
81006;SDS011;70472;47.592;17.640;2023-09-19T00:35:15;10.93;;;10.93;;
81006;SDS011;70472;47.592;17.640;2023-09-19T00:35:50;10.53;;;10.53;;
81006;SDS011;70472;47.592;17.640;2023-09-19T00:36:25;10.17;;;10.17;;
81006;SDS011;70472;47.592;17.640;2023-09-19T00:36:57;9.43;;;9.43;;
81006;SDS011;70472;47.592;17.640;2023-09-19T00:37:30;9.63;;;9.63;;
81006;SDS011;70472;47.592;17.640;2023-09-19T00:38:02;9.47;;;9.47;;
81006;SDS011;70472;47.592;17.640;2023-09-19T00:38:35;9.77;;;9.77;;
81006;SDS011;70472;47.592;17.640;2023-09-19T00:39:07;9.93;;;9.93;;
81006;SDS011;70472;47.592;17.640;2023-09-19T00:39:40;9.67;;;9.67;;
81006;SDS011;70472;47.592;17.640;2023-09-19T00:40:12;9.90;;;9.90;;
81006;SDS011;70472;47.592;17.640;2023-09-19T00:40:45;9.97;;;9.97;;
81006;SDS011;70472;47.592;17.640;2023-09-19T00:41:21;10.30;;;10.30;;
81006;SDS011;70472;47.592;17.640;2023-09-19T00:41:53;9.50;;;9.50;;
81006;SDS011;70472;47.592;17.640;2023-09-19T00:42:25;9.93;;;9.93;;
81006;SDS011;70472;47.592;17.640;2023-09-19T00:42:58;9.20;;;9.20;;
81006;SDS011;70472;47.592;17.640;2023-09-19T00:43:30;10.27;;;10.27;;
81006;SDS011;70472;47.592;17.640;2023-09-19T00:44:03;10.87;;;10.87;;
81006;SDS011;70472;47.592;17.640;2023-09-19T00:44:36;9.43;;;9.43;;
81006;SDS011;70472;47.592;17.640;2023-09-19T00:45:08;9.93;;;9.93;;
81006;SDS011;70472;47.592;17.640;2023-09-19T00:45:44;9.67;;;9.67;;
81006;SDS011;70472;47.592;17.640;2023-09-19T00:46:20;9.10;;;9.10;;
81006;SDS011;70472;47.592;17.640;2023-09-19T00:46:53;8.57;;;8.57;;
81006;SDS011;70472;47.592;17.640;2023-09-19T00:47:25;8.50;;;8.50;;
81006;SDS011;70472;47.592;17.640;2023-09-19T00:48:00;8.07;;;8.07;;
81006;SDS011;70472;47.592;17.640;2023-09-19T00:48:37;7.70;;;7.70;;
81006;SDS011;70472;47.592;17.640;2023-09-19T00:49:13;8.63;;;8.63;;
81006;SDS011;70472;47.592;17.640;2023-09-19T00:49:46;8.93;;;8.93;;
81006;SDS011;70472;47.592;17.640;2023-09-19T00:50:20;8.40;;;8.40;;
81006;SDS011;70472;47.592;17.640;2023-09-19T00:51:01;8.23;;;8.23;;
81006;SDS011;70472;47.592;17.640;2023-09-19T00:51:36;9.60;;;9.60;;
81006;SDS011;70472;47.592;17.640;2023-09-19T00:52:10;9.63;;;9.63;;
81006;SDS011;70472;47.592;17.640;2023-09-19T00:52:43;9.60;;;9.60;;
81006;SDS011;70472;47.592;17.640;2023-09-19T00:53:23;8.80;;;8.80;;
81006;SDS011;70472;47.592;17.640;2023-09-19T00:53:58;8.53;;;8.53;;
81006;SDS011;70472;47.592;17.640;2023-09-19T00:54:31;9.17;;;9.17;;
81006;SDS011;70472;47.592;17.640;2023-09-19T00:55:05;9.23;;;9.23;;
81006;SDS011;70472;47.592;17.640;2023-09-19T00:55:40;8.87;;;8.87;;
81006;SDS011;70472;47.592;17.640;2023-09-19T00:56:14;8.53;;;8.53;;
81006;SDS011;70472;47.592;17.640;2023-09-19T00:56:47;8.60;;;8.60;;
81006;SDS011;70472;47.592;17.640;2023-09-19T00:57:19;8.37;;;8.37;;
81006;SDS011;70472;47.592;17.640;2023-09-19T00:57:52;8.43;;;8.43;;
81006;SDS011;70472;47.592;17.640;2023-09-19T00:58:27;8.40;;;8.40;;
81006;SDS011;70472;47.592;17.640;2023-09-19T00:58:59;8.50;;;8.50;;
81006;SDS011;70472;47.592;17.640;2023-09-19T00:59:32;8.63;;;8.63;;
81006;SDS011;70472;47.592;17.640;2023-09-19T01:00:05;9.37;;;9.37;;
81006;SDS011;70472;47.592;17.640;2023-09-19T01:00:40;9.20;;;9.20;;
81006;SDS011;70472;47.592;17.640;2023-09-19T01:01:13;8.67;;;8.67;;
81006;SDS011;70472;47.592;17.640;2023-09-19T01:01:46;9.23;;;9.23;;
81006;SDS011;70472;47.592;17.640;2023-09-19T01:02:18;9.10;;;9.10;;
81006;SDS011;70472;47.592;17.640;2023-09-19T01:02:51;8.83;;;8.83;;
81006;SDS011;70472;47.592;17.640;2023-09-19T01:03:24;9.33;;;9.33;;
81006;SDS011;70472;47.592;17.640;2023-09-19T01:03:57;8.27;;;8.27;;
81006;SDS011;70472;47.592;17.640;2023-09-19T01:04:30;8.80;;;8.80;;
81006;SDS011;70472;47.592;17.640;2023-09-19T01:05:03;9.43;;;9.43;;
81006;SDS011;70472;47.592;17.640;2023-09-19T01:05:36;9.10;;;9.10;;
81006;SDS011;70472;47.592;17.640;2023-09-19T01:06:09;8.63;;;8.63;;
81006;SDS011;70472;47.592;17.640;2023-09-19T01:06:43;9.10;;;9.10;;
81006;SDS011;70472;47.592;17.640;2023-09-19T01:07:15;8.77;;;8.77;;
81006;SDS011;70472;47.592;17.640;2023-09-19T01:07:49;8.57;;;8.57;;
81006;SDS011;70472;47.592;17.640;2023-09-19T01:08:21;8.90;;;8.90;;
81006;SDS011;70472;47.592;17.640;2023-09-19T01:08:53;7.87;;;7.87;;
81006;SDS011;70472;47.592;17.640;2023-09-19T01:09:26;8.37;;;8.37;;
81006;SDS011;70472;47.592;17.640;2023-09-19T01:09:58;8.43;;;8.43;;
81006;SDS011;70472;47.592;17.640;2023-09-19T01:10:35;8.30;;;8.30;;
81006;SDS011;70472;47.592;17.640;2023-09-19T01:11:58;8.43;;;8.43;;
81006;SDS011;70472;47.592;17.640;2023-09-19T01:12:48;7.33;;;7.33;;
81006;SDS011;70472;47.592;17.640;2023-09-19T01:13:47;7.13;;;7.13;;
81006;SDS011;70472;47.592;17.640;2023-09-19T01:15:21;7.43;;;7.43;;
81006;SDS011;70472;47.592;17.640;2023-09-19T01:16:53;6.87;;;6.87;;
81006;SDS011;70472;47.592;17.640;2023-09-19T01:20:37;7.23;;;7.23;;
81006;SDS011;70472;47.592;17.640;2023-09-19T01:25:19;6.10;;;6.10;;
81006;SDS011;70472;47.592;17.640;2023-09-19T01:26:13;5.83;;;5.83;;
81006;SDS011;70472;47.592;17.640;2023-09-19T01:29:46;5.93;;;5.93;;
81006;SDS011;70472;47.592;17.640;2023-09-19T01:30:22;6.00;;;6.00;;
81006;SDS011;70472;47.592;17.640;2023-09-19T01:30:59;5.50;;;5.50;;
81006;SDS011;70472;47.592;17.640;2023-09-19T01:31:34;6.50;;;6.50;;
81006;SDS011;70472;47.592;17.640;2023-09-19T01:32:13;5.90;;;5.90;;
81006;SDS011;70472;47.592;17.640;2023-09-19T01:32:50;6.27;;;6.27;;
81006;SDS011;70472;47.592;17.640;2023-09-19T01:33:24;6.00;;;6.00;;
81006;SDS011;70472;47.592;17.640;2023-09-19T01:34:00;5.80;;;5.80;;
81006;SDS011;70472;47.592;17.640;2023-09-19T01:35:25;4.93;;;4.93;;
81006;SDS011;70472;47.592;17.640;2023-09-19T01:35:58;5.40;;;5.40;;
81006;SDS011;70472;47.592;17.640;2023-09-19T01:36:32;5.23;;;5.23;;
81006;SDS011;70472;47.592;17.640;2023-09-19T01:37:07;4.87;;;4.87;;
81006;SDS011;70472;47.592;17.640;2023-09-19T01:37:40;4.60;;;4.60;;
81006;SDS011;70472;47.592;17.640;2023-09-19T01:38:13;4.87;;;4.87;;
81006;SDS011;70472;47.592;17.640;2023-09-19T01:38:46;5.17;;;5.17;;
81006;SDS011;70472;47.592;17.640;2023-09-19T01:39:19;4.60;;;4.60;;
81006;SDS011;70472;47.592;17.640;2023-09-19T01:39:55;4.77;;;4.77;;
81006;SDS011;70472;47.592;17.640;2023-09-19T01:40:41;5.43;;;5.43;;
81006;SDS011;70472;47.592;17.640;2023-09-19T01:41:17;4.90;;;4.90;;
81006;SDS011;70472;47.592;17.640;2023-09-19T01:42:04;4.43;;;4.43;;
81006;SDS011;70472;47.592;17.640;2023-09-19T01:43:48;4.17;;;4.17;;
81006;SDS011;70472;47.592;17.640;2023-09-19T01:44:24;4.00;;;4.00;;
81006;SDS011;70472;47.592;17.640;2023-09-19T01:45:43;4.17;;;4.17;;
81006;SDS011;70472;47.592;17.640;2023-09-19T01:46:24;3.80;;;3.80;;
81006;SDS011;70472;47.592;17.640;2023-09-19T01:47:13;3.97;;;3.97;;
81006;SDS011;70472;47.592;17.640;2023-09-19T01:50:32;3.87;;;3.87;;
81006;SDS011;70472;47.592;17.640;2023-09-19T01:51:14;3.50;;;3.50;;
81006;SDS011;70472;47.592;17.640;2023-09-19T01:52:09;3.57;;;3.57;;
81006;SDS011;70472;47.592;17.640;2023-09-19T01:52:48;3.37;;;3.37;;
81006;SDS011;70472;47.592;17.640;2023-09-19T01:53:35;3.27;;;3.27;;
81006;SDS011;70472;47.592;17.640;2023-09-19T01:54:48;3.93;;;3.93;;
81006;SDS011;70472;47.592;17.640;2023-09-19T01:55:28;4.07;;;4.07;;
81006;SDS011;70472;47.592;17.640;2023-09-19T01:56:02;3.47;;;3.47;;
81006;SDS011;70472;47.592;17.640;2023-09-19T01:57:53;3.57;;;3.57;;
81006;SDS011;70472;47.592;17.640;2023-09-19T01:58:52;3.43;;;3.43;;
81006;SDS011;70472;47.592;17.640;2023-09-19T01:59:41;3.30;;;3.30;;
81006;SDS011;70472;47.592;17.640;2023-09-19T02:00:22;3.50;;;3.50;;
81006;SDS011;70472;47.592;17.640;2023-09-19T02:01:03;3.23;;;3.23;;
81006;SDS011;70472;47.592;17.640;2023-09-19T02:01:42;2.97;;;2.97;;
81006;SDS011;70472;47.592;17.640;2023-09-19T02:02:17;3.60;;;3.60;;
81006;SDS011;70472;47.592;17.640;2023-09-19T02:02:53;3.80;;;3.80;;
81006;SDS011;70472;47.592;17.640;2023-09-19T02:03:25;3.73;;;3.73;;
81006;SDS011;70472;47.592;17.640;2023-09-19T02:03:59;3.63;;;3.63;;
81006;SDS011;70472;47.592;17.640;2023-09-19T02:04:32;3.70;;;3.70;;
81006;SDS011;70472;47.592;17.640;2023-09-19T02:05:06;3.13;;;3.13;;
81006;SDS011;70472;47.592;17.640;2023-09-19T02:05:39;3.43;;;3.43;;
81006;SDS011;70472;47.592;17.640;2023-09-19T02:06:14;3.07;;;3.07;;
81006;SDS011;70472;47.592;17.640;2023-09-19T02:06:48;2.97;;;2.97;;
81006;SDS011;70472;47.592;17.640;2023-09-19T02:07:21;2.80;;;2.80;;
81006;SDS011;70472;47.592;17.640;2023-09-19T02:07:54;2.60;;;2.60;;
81006;SDS011;70472;47.592;17.640;2023-09-19T02:08:28;2.70;;;2.70;;
81006;SDS011;70472;47.592;17.640;2023-09-19T02:09:00;3.10;;;3.10;;
81006;SDS011;70472;47.592;17.640;2023-09-19T02:09:33;2.83;;;2.83;;
81006;SDS011;70472;47.592;17.640;2023-09-19T02:10:06;3.20;;;3.20;;
81006;SDS011;70472;47.592;17.640;2023-09-19T02:10:39;2.90;;;2.90;;
81006;SDS011;70472;47.592;17.640;2023-09-19T02:11:11;3.00;;;3.00;;
81006;SDS011;70472;47.592;17.640;2023-09-19T02:11:44;2.77;;;2.77;;
81006;SDS011;70472;47.592;17.640;2023-09-19T02:12:16;2.73;;;2.73;;
81006;SDS011;70472;47.592;17.640;2023-09-19T02:12:49;3.43;;;3.43;;
81006;SDS011;70472;47.592;17.640;2023-09-19T02:13:22;3.13;;;3.13;;
81006;SDS011;70472;47.592;17.640;2023-09-19T02:13:55;2.23;;;2.23;;
81006;SDS011;70472;47.592;17.640;2023-09-19T02:14:28;1.90;;;1.90;;
81006;SDS011;70472;47.592;17.640;2023-09-19T02:15:00;1.97;;;1.97;;
81006;SDS011;70472;47.592;17.640;2023-09-19T02:15:33;2.13;;;2.13;;
81006;SDS011;70472;47.592;17.640;2023-09-19T02:16:06;2.27;;;2.27;;
81006;SDS011;70472;47.592;17.640;2023-09-19T02:16:39;2.07;;;2.07;;
81006;SDS011;70472;47.592;17.640;2023-09-19T02:17:12;2.07;;;2.07;;
81006;SDS011;70472;47.592;17.640;2023-09-19T02:17:44;2.17;;;2.17;;
81006;SDS011;70472;47.592;17.640;2023-09-19T02:18:17;2.00;;;2.00;;
81006;SDS011;70472;47.592;17.640;2023-09-19T02:18:50;1.60;;;1.60;;
81006;SDS011;70472;47.592;17.640;2023-09-19T02:19:22;1.73;;;1.73;;
81006;SDS011;70472;47.592;17.640;2023-09-19T02:19:55;1.53;;;1.53;;
81006;SDS011;70472;47.592;17.640;2023-09-19T02:20:27;1.70;;;1.70;;
81006;SDS011;70472;47.592;17.640;2023-09-19T02:21:01;1.70;;;1.70;;
81006;SDS011;70472;47.592;17.640;2023-09-19T02:21:34;1.40;;;1.40;;
81006;SDS011;70472;47.592;17.640;2023-09-19T02:22:07;1.37;;;1.37;;
81006;SDS011;70472;47.592;17.640;2023-09-19T02:22:39;1.47;;;1.47;;
81006;SDS011;70472;47.592;17.640;2023-09-19T02:23:13;1.30;;;1.30;;
81006;SDS011;70472;47.592;17.640;2023-09-19T02:23:46;1.50;;;1.50;;
81006;SDS011;70472;47.592;17.640;2023-09-19T02:24:19;1.50;;;1.50;;
81006;SDS011;70472;47.592;17.640;2023-09-19T02:24:51;1.47;;;1.47;;
81006;SDS011;70472;47.592;17.640;2023-09-19T02:25:24;1.37;;;1.37;;
81006;SDS011;70472;47.592;17.640;2023-09-19T02:25:56;1.50;;;1.50;;
81006;SDS011;70472;47.592;17.640;2023-09-19T02:26:29;1.20;;;1.20;;
81006;SDS011;70472;47.592;17.640;2023-09-19T02:27:01;1.17;;;1.17;;
81006;SDS011;70472;47.592;17.640;2023-09-19T02:27:34;1.17;;;1.17;;
81006;SDS011;70472;47.592;17.640;2023-09-19T02:28:07;1.17;;;1.17;;
81006;SDS011;70472;47.592;17.640;2023-09-19T02:28:40;1.03;;;1.03;;
81006;SDS011;70472;47.592;17.640;2023-09-19T02:29:13;1.03;;;1.03;;
81006;SDS011;70472;47.592;17.640;2023-09-19T02:29:46;1.23;;;1.23;;
81006;SDS011;70472;47.592;17.640;2023-09-19T02:30:19;1.07;;;1.07;;
81006;SDS011;70472;47.592;17.640;2023-09-19T02:30:53;0.80;;;0.80;;
81006;SDS011;70472;47.592;17.640;2023-09-19T02:31:25;0.80;;;0.80;;
81006;SDS011;70472;47.592;17.640;2023-09-19T02:31:58;0.87;;;0.87;;
81006;SDS011;70472;47.592;17.640;2023-09-19T02:32:30;0.90;;;0.90;;
81006;SDS011;70472;47.592;17.640;2023-09-19T02:33:03;0.80;;;0.80;;
81006;SDS011;70472;47.592;17.640;2023-09-19T02:33:36;0.87;;;0.87;;
81006;SDS011;70472;47.592;17.640;2023-09-19T02:34:08;0.77;;;0.77;;
81006;SDS011;70472;47.592;17.640;2023-09-19T02:34:41;0.73;;;0.73;;
81006;SDS011;70472;47.592;17.640;2023-09-19T02:35:13;0.87;;;0.87;;
81006;SDS011;70472;47.592;17.640;2023-09-19T02:35:45;0.83;;;0.83;;
81006;SDS011;70472;47.592;17.640;2023-09-19T02:36:18;0.97;;;0.97;;
81006;SDS011;70472;47.592;17.640;2023-09-19T02:36:50;0.90;;;0.90;;
81006;SDS011;70472;47.592;17.640;2023-09-19T02:37:23;0.83;;;0.83;;
81006;SDS011;70472;47.592;17.640;2023-09-19T02:37:55;0.90;;;0.90;;
81006;SDS011;70472;47.592;17.640;2023-09-19T02:38:27;0.80;;;0.80;;
81006;SDS011;70472;47.592;17.640;2023-09-19T02:39:00;0.77;;;0.77;;
81006;SDS011;70472;47.592;17.640;2023-09-19T02:39:33;0.80;;;0.80;;
81006;SDS011;70472;47.592;17.640;2023-09-19T02:40:06;0.63;;;0.63;;
81006;SDS011;70472;47.592;17.640;2023-09-19T02:40:42;0.60;;;0.60;;
81006;SDS011;70472;47.592;17.640;2023-09-19T02:41:14;0.60;;;0.60;;
81006;SDS011;70472;47.592;17.640;2023-09-19T02:41:47;0.57;;;0.57;;
81006;SDS011;70472;47.592;17.640;2023-09-19T02:42:19;0.87;;;0.87;;
81006;SDS011;70472;47.592;17.640;2023-09-19T02:42:53;0.80;;;0.80;;
81006;SDS011;70472;47.592;17.640;2023-09-19T02:43:27;0.97;;;0.97;;
81006;SDS011;70472;47.592;17.640;2023-09-19T02:44:00;0.73;;;0.73;;
81006;SDS011;70472;47.592;17.640;2023-09-19T02:44:33;1.00;;;1.00;;
81006;SDS011;70472;47.592;17.640;2023-09-19T02:45:06;0.77;;;0.77;;
81006;SDS011;70472;47.592;17.640;2023-09-19T02:45:40;0.67;;;0.67;;
81006;SDS011;70472;47.592;17.640;2023-09-19T02:46:12;0.87;;;0.87;;
81006;SDS011;70472;47.592;17.640;2023-09-19T02:46:45;1.10;;;1.10;;
81006;SDS011;70472;47.592;17.640;2023-09-19T02:47:17;1.20;;;1.20;;
81006;SDS011;70472;47.592;17.640;2023-09-19T02:47:49;0.87;;;0.87;;
81006;SDS011;70472;47.592;17.640;2023-09-19T02:48:22;0.70;;;0.70;;
81006;SDS011;70472;47.592;17.640;2023-09-19T02:48:54;0.83;;;0.83;;
81006;SDS011;70472;47.592;17.640;2023-09-19T02:49:27;0.87;;;0.87;;
81006;SDS011;70472;47.592;17.640;2023-09-19T02:49:59;0.80;;;0.80;;
81006;SDS011;70472;47.592;17.640;2023-09-19T02:50:31;0.73;;;0.73;;
81006;SDS011;70472;47.592;17.640;2023-09-19T02:51:04;0.47;;;0.47;;
81006;SDS011;70472;47.592;17.640;2023-09-19T02:51:36;0.60;;;0.60;;
81006;SDS011;70472;47.592;17.640;2023-09-19T02:52:09;1.03;;;1.03;;
81006;SDS011;70472;47.592;17.640;2023-09-19T02:52:42;0.80;;;0.80;;
81006;SDS011;70472;47.592;17.640;2023-09-19T02:53:15;0.63;;;0.63;;
81006;SDS011;70472;47.592;17.640;2023-09-19T02:53:47;0.97;;;0.97;;
81006;SDS011;70472;47.592;17.640;2023-09-19T02:54:20;0.97;;;0.97;;
81006;SDS011;70472;47.592;17.640;2023-09-19T02:54:53;0.73;;;0.73;;
81006;SDS011;70472;47.592;17.640;2023-09-19T02:55:25;0.97;;;0.97;;
81006;SDS011;70472;47.592;17.640;2023-09-19T02:55:58;0.87;;;0.87;;
81006;SDS011;70472;47.592;17.640;2023-09-19T02:56:31;0.83;;;0.83;;
81006;SDS011;70472;47.592;17.640;2023-09-19T02:57:03;1.00;;;1.00;;
81006;SDS011;70472;47.592;17.640;2023-09-19T02:57:36;1.17;;;1.17;;
81006;SDS011;70472;47.592;17.640;2023-09-19T02:58:08;1.00;;;1.00;;
81006;SDS011;70472;47.592;17.640;2023-09-19T02:58:41;0.70;;;0.70;;
81006;SDS011;70472;47.592;17.640;2023-09-19T02:59:13;0.93;;;0.93;;
81006;SDS011;70472;47.592;17.640;2023-09-19T02:59:46;0.83;;;0.83;;
81006;SDS011;70472;47.592;17.640;2023-09-19T03:00:18;0.70;;;0.70;;
81006;SDS011;70472;47.592;17.640;2023-09-19T03:00:51;0.87;;;0.87;;
81006;SDS011;70472;47.592;17.640;2023-09-19T03:01:24;0.83;;;0.83;;
81006;SDS011;70472;47.592;17.640;2023-09-19T03:01:57;1.00;;;1.00;;
81006;SDS011;70472;47.592;17.640;2023-09-19T03:02:29;0.60;;;0.60;;
81006;SDS011;70472;47.592;17.640;2023-09-19T03:03:02;0.63;;;0.63;;
81006;SDS011;70472;47.592;17.640;2023-09-19T03:03:35;0.63;;;0.63;;
81006;SDS011;70472;47.592;17.640;2023-09-19T03:04:07;0.77;;;0.77;;
81006;SDS011;70472;47.592;17.640;2023-09-19T03:04:40;0.80;;;0.80;;
81006;SDS011;70472;47.592;17.640;2023-09-19T03:05:12;0.63;;;0.63;;
81006;SDS011;70472;47.592;17.640;2023-09-19T03:05:45;0.73;;;0.73;;
81006;SDS011;70472;47.592;17.640;2023-09-19T03:06:18;0.73;;;0.73;;
81006;SDS011;70472;47.592;17.640;2023-09-19T03:06:51;0.93;;;0.93;;
81006;SDS011;70472;47.592;17.640;2023-09-19T03:07:23;0.67;;;0.67;;
81006;SDS011;70472;47.592;17.640;2023-09-19T03:07:55;0.87;;;0.87;;
81006;SDS011;70472;47.592;17.640;2023-09-19T03:08:29;1.03;;;1.03;;
81006;SDS011;70472;47.592;17.640;2023-09-19T03:09:01;0.93;;;0.93;;
81006;SDS011;70472;47.592;17.640;2023-09-19T03:09:33;0.70;;;0.70;;
81006;SDS011;70472;47.592;17.640;2023-09-19T03:10:06;0.70;;;0.70;;
81006;SDS011;70472;47.592;17.640;2023-09-19T03:10:39;0.70;;;0.70;;
81006;SDS011;70472;47.592;17.640;2023-09-19T03:11:13;0.90;;;0.90;;
81006;SDS011;70472;47.592;17.640;2023-09-19T03:11:47;0.93;;;0.93;;
81006;SDS011;70472;47.592;17.640;2023-09-19T03:12:20;1.33;;;1.33;;
81006;SDS011;70472;47.592;17.640;2023-09-19T03:12:53;1.17;;;1.17;;
81006;SDS011;70472;47.592;17.640;2023-09-19T03:13:25;0.93;;;0.93;;
81006;SDS011;70472;47.592;17.640;2023-09-19T03:13:58;1.10;;;1.10;;
81006;SDS011;70472;47.592;17.640;2023-09-19T03:14:31;0.97;;;0.97;;
81006;SDS011;70472;47.592;17.640;2023-09-19T03:15:03;0.80;;;0.80;;
81006;SDS011;70472;47.592;17.640;2023-09-19T03:15:36;0.87;;;0.87;;
81006;SDS011;70472;47.592;17.640;2023-09-19T03:16:13;0.90;;;0.90;;
81006;SDS011;70472;47.592;17.640;2023-09-19T03:16:45;0.80;;;0.80;;
81006;SDS011;70472;47.592;17.640;2023-09-19T03:17:19;0.57;;;0.57;;
81006;SDS011;70472;47.592;17.640;2023-09-19T03:17:51;0.40;;;0.40;;
81006;SDS011;70472;47.592;17.640;2023-09-19T03:18:26;0.70;;;0.70;;
81006;SDS011;70472;47.592;17.640;2023-09-19T03:18:59;0.87;;;0.87;;
81006;SDS011;70472;47.592;17.640;2023-09-19T03:19:33;0.83;;;0.83;;
81006;SDS011;70472;47.592;17.640;2023-09-19T03:20:06;0.87;;;0.87;;
81006;SDS011;70472;47.592;17.640;2023-09-19T03:20:39;0.57;;;0.57;;
81006;SDS011;70472;47.592;17.640;2023-09-19T03:21:12;0.60;;;0.60;;
81006;SDS011;70472;47.592;17.640;2023-09-19T03:21:45;1.03;;;1.03;;
81006;SDS011;70472;47.592;17.640;2023-09-19T03:22:18;0.80;;;0.80;;
81006;SDS011;70472;47.592;17.640;2023-09-19T03:22:50;1.03;;;1.03;;
81006;SDS011;70472;47.592;17.640;2023-09-19T03:23:23;0.93;;;0.93;;
81006;SDS011;70472;47.592;17.640;2023-09-19T03:23:55;1.00;;;1.00;;
81006;SDS011;70472;47.592;17.640;2023-09-19T03:24:28;0.90;;;0.90;;
81006;SDS011;70472;47.592;17.640;2023-09-19T03:25:01;0.97;;;0.97;;
81006;SDS011;70472;47.592;17.640;2023-09-19T03:25:34;1.03;;;1.03;;
81006;SDS011;70472;47.592;17.640;2023-09-19T03:26:06;1.00;;;1.00;;
81006;SDS011;70472;47.592;17.640;2023-09-19T03:26:40;0.97;;;0.97;;
81006;SDS011;70472;47.592;17.640;2023-09-19T03:27:13;1.17;;;1.17;;
81006;SDS011;70472;47.592;17.640;2023-09-19T03:27:45;0.87;;;0.87;;
81006;SDS011;70472;47.592;17.640;2023-09-19T03:28:18;1.20;;;1.20;;
81006;SDS011;70472;47.592;17.640;2023-09-19T03:28:51;0.87;;;0.87;;
81006;SDS011;70472;47.592;17.640;2023-09-19T03:29:25;1.10;;;1.10;;
81006;SDS011;70472;47.592;17.640;2023-09-19T03:29:57;1.40;;;1.40;;
81006;SDS011;70472;47.592;17.640;2023-09-19T03:30:30;1.30;;;1.30;;
81006;SDS011;70472;47.592;17.640;2023-09-19T03:31:03;1.07;;;1.03;;
81006;SDS011;70472;47.592;17.640;2023-09-19T03:31:39;1.20;;;1.13;;
81006;SDS011;70472;47.592;17.640;2023-09-19T03:32:12;1.27;;;1.23;;
81006;SDS011;70472;47.592;17.640;2023-09-19T03:32:45;1.17;;;1.13;;
81006;SDS011;70472;47.592;17.640;2023-09-19T03:33:19;1.13;;;1.07;;
81006;SDS011;70472;47.592;17.640;2023-09-19T03:33:52;1.17;;;1.13;;
81006;SDS011;70472;47.592;17.640;2023-09-19T03:34:26;1.37;;;1.30;;
81006;SDS011;70472;47.592;17.640;2023-09-19T03:34:58;1.17;;;1.13;;
81006;SDS011;70472;47.592;17.640;2023-09-19T03:35:31;1.50;;;1.47;;
81006;SDS011;70472;47.592;17.640;2023-09-19T03:36:04;1.40;;;1.37;;
81006;SDS011;70472;47.592;17.640;2023-09-19T03:36:37;1.47;;;1.37;;
81006;SDS011;70472;47.592;17.640;2023-09-19T03:37:09;1.33;;;1.30;;
81006;SDS011;70472;47.592;17.640;2023-09-19T03:37:42;1.30;;;1.20;;
81006;SDS011;70472;47.592;17.640;2023-09-19T03:38:15;1.60;;;1.50;;
81006;SDS011;70472;47.592;17.640;2023-09-19T03:38:48;1.47;;;1.40;;
81006;SDS011;70472;47.592;17.640;2023-09-19T03:39:20;1.30;;;1.27;;
81006;SDS011;70472;47.592;17.640;2023-09-19T03:39:53;1.63;;;1.53;;
81006;SDS011;70472;47.592;17.640;2023-09-19T03:40:26;1.70;;;1.67;;